createdAt,value
2018-04-27T00:01:01.015Z,101306.81
2018-04-27T00:03:32.978Z,101302.32
2018-04-27T00:06:05.278Z,101302.75
2018-04-27T00:08:37.345Z,101303.61
2018-04-27T00:11:09.286Z,101296.38
2018-04-27T00:13:40.971Z,101298.34
2018-04-27T00:16:13.057Z,101300.63
2018-04-27T00:18:44.984Z,101300.97
2018-04-27T00:21:16.710Z,101304.02
2018-04-27T00:23:47.546Z,101297.06
2018-04-27T00:28:57.269Z,101299.91
2018-04-27T00:31:29.162Z,101299.69
2018-04-27T00:34:01.082Z,101303.95
2018-04-27T00:36:32.993Z,101301.66
2018-04-27T00:39:04.815Z,101304.17
2018-04-27T00:41:35.585Z,101303.15
2018-04-27T00:44:07.573Z,101305.34
2018-04-27T00:46:39.488Z,101295.80
2018-04-27T00:49:11.719Z,101295.84
2018-04-27T00:51:43.694Z,101291.23
2018-04-27T00:54:15.583Z,101296.43
2018-04-27T00:56:47.507Z,101302.90
2018-04-27T00:59:19.079Z,101295.20
2018-04-27T01:01:50.810Z,101294.09
2018-04-27T01:04:22.552Z,101294.66
2018-04-27T01:07:53.555Z,101294.85
2018-04-27T01:10:25.374Z,101292.34
2018-04-27T01:12:57.016Z,101291.25
2018-04-27T01:15:28.579Z,101280.80
2018-04-27T01:18:00.182Z,101291.83
2018-04-27T01:20:31.588Z,101284.05
2018-04-27T01:23:03.303Z,101279.72
2018-04-27T01:26:26.597Z,101287.72
2018-04-27T01:28:59.028Z,101279.62
2018-04-27T01:31:30.986Z,101279.70
2018-04-27T01:34:31.579Z,101281.50
2018-04-27T01:37:04.816Z,101281.92
2018-04-27T01:39:37.406Z,101282.48
2018-04-27T01:42:09.455Z,101285.91
2018-04-27T01:44:42.091Z,101289.84
2018-04-27T01:47:13.515Z,101287.41
2018-04-27T01:49:45.049Z,101296.55
2018-04-27T01:52:17.054Z,101293.20
2018-04-27T01:54:49.464Z,101284.45
2018-04-27T01:57:21.535Z,101293.51
2018-04-27T01:59:53.741Z,101290.08
2018-04-27T02:02:25.555Z,101288.88
2018-04-27T02:05:45.446Z,101280.44
2018-04-27T02:08:17.502Z,101289.54
2018-04-27T02:10:49.310Z,101296.52
2018-04-27T02:13:21.224Z,101295.82
2018-04-27T02:15:53.201Z,101298.30
2018-04-27T02:18:24.937Z,101296.89
2018-04-27T02:20:56.757Z,101297.95
2018-04-27T02:23:28.423Z,101300.42
2018-04-27T02:26:00.096Z,101300.89
2018-04-27T02:28:30.889Z,101299.99
2018-04-27T02:31:02.999Z,101300.88
2018-04-27T02:33:34.542Z,101304.02
2018-04-27T02:36:08.234Z,101311.47
2018-04-27T02:38:40.042Z,101314.84
2018-04-27T02:41:11.878Z,101314.58
2018-04-27T02:43:44.260Z,101316.23
2018-04-27T02:46:17.073Z,101315.00
2018-04-27T02:48:49.295Z,101325.02
2018-04-27T02:51:21.015Z,101330.98
2018-04-27T02:53:53.073Z,101328.22
2018-04-27T02:56:25.042Z,101335.60
2018-04-27T02:58:57.089Z,101337.20
2018-04-27T03:01:28.864Z,101347.34
2018-04-27T03:04:01.229Z,101342.49
2018-04-27T03:06:33.049Z,101352.21
2018-04-27T03:09:04.507Z,101355.27
2018-04-27T03:11:35.011Z,101357.59
2018-04-27T03:14:06.983Z,101358.20
2018-04-27T03:16:38.509Z,101369.59
2018-04-27T03:19:10.261Z,101367.47
2018-04-27T03:21:42.023Z,101376.29
2018-04-27T03:24:13.519Z,101373.63
2018-04-27T03:26:45.242Z,101384.25
2018-04-27T03:29:17.274Z,101386.15
2018-04-27T03:31:49.019Z,101393.89
2018-04-27T03:34:21.091Z,101401.80
2018-04-27T03:36:52.789Z,101406.06
2018-04-27T03:39:24.881Z,101413.84
2018-04-27T03:41:56.739Z,101416.19
2018-04-27T03:44:28.417Z,101419.98
2018-04-27T03:47:00.155Z,101427.85
2018-04-27T03:49:32.389Z,101431.92
2018-04-27T03:52:04.529Z,101439.09
2018-04-27T03:54:36.454Z,101442.72
2018-04-27T03:57:08.513Z,101447.30
2018-04-27T03:59:51.435Z,101450.95
2018-04-27T04:02:34.916Z,101452.07
2018-04-27T04:05:17.520Z,101454.37
2018-04-27T04:07:49.597Z,101460.12
2018-04-27T04:10:21.905Z,101462.78
2018-04-27T04:15:38.526Z,101473.66
2018-04-27T04:18:11.382Z,101472.87
2018-04-27T04:20:44.232Z,101479.70
2018-04-27T04:23:16.440Z,101485.30
2018-04-27T04:25:48.755Z,101492.30
2018-04-27T04:28:20.746Z,101493.82
2018-04-27T04:30:53.765Z,101496.41
2018-04-27T04:33:27.576Z,101502.44
2018-04-27T04:35:59.369Z,101509.71
2018-04-27T04:38:31.502Z,101519.63
2018-04-27T04:41:03.004Z,101526.91
2018-04-27T04:43:34.483Z,101531.03
2018-04-27T04:46:06.436Z,101538.16
2018-04-27T04:48:39.370Z,101546.00
2018-04-27T04:51:12.396Z,101544.70
2018-04-27T04:53:44.439Z,101549.95
2018-04-27T04:56:16.498Z,101555.75
2018-04-27T04:58:48.816Z,101553.63
2018-04-27T05:01:20.502Z,101550.05
2018-04-27T05:03:52.376Z,101548.63
2018-04-27T05:06:24.041Z,101548.81
2018-04-27T05:08:56.187Z,101549.69
2018-04-27T05:13:54.146Z,101556.89
2018-04-27T05:16:26.247Z,101555.63
2018-04-27T05:19:05.409Z,101550.73
2018-04-27T05:21:36.924Z,101554.06
2018-04-27T05:24:08.717Z,101553.53
2018-04-27T05:26:40.403Z,101547.70
2018-04-27T05:29:12.582Z,101550.89
2018-04-27T05:31:44.467Z,101553.22
2018-04-27T05:34:16.805Z,101557.17
2018-04-27T05:36:48.638Z,101564.89
2018-04-27T05:39:20.527Z,101566.19
2018-04-27T05:41:52.414Z,101574.31
2018-04-27T05:44:24.111Z,101579.45
2018-04-27T05:46:56.211Z,101578.31
2018-04-27T05:49:28.379Z,101583.06
2018-04-27T05:52:00.043Z,101585.52
2018-04-27T05:54:32.063Z,101589.58
2018-04-27T05:57:03.758Z,101596.75
2018-04-27T05:59:35.527Z,101595.09
2018-04-27T06:02:09.668Z,101585.00
2018-04-27T06:04:41.492Z,101586.33
2018-04-27T06:07:13.056Z,101586.27
2018-04-27T06:09:44.741Z,101594.11
2018-04-27T06:12:16.395Z,101599.27
2018-04-27T06:14:48.103Z,101596.58
2018-04-27T06:17:19.657Z,101597.52
2018-04-27T06:19:51.934Z,101594.98
2018-04-27T06:22:25.308Z,101597.83
2018-04-27T06:24:57.218Z,101602.98
2018-04-27T06:27:28.895Z,101604.79
2018-04-27T06:30:01.308Z,101611.56
2018-04-27T06:32:34.304Z,101609.28
2018-04-27T06:35:07.720Z,101605.86
2018-04-27T06:37:41.532Z,101608.81
2018-04-27T06:40:14.739Z,101614.38
2018-04-27T06:42:48.735Z,101613.96
2018-04-27T06:45:22.258Z,101607.48
2018-04-27T06:47:55.744Z,101607.85
2018-04-27T06:50:28.508Z,101605.86
2018-04-27T06:53:01.919Z,101606.37
2018-04-27T06:55:35.667Z,101607.38
2018-04-27T06:58:08.683Z,101607.14
2018-04-27T07:00:42.565Z,101607.16
2018-04-27T07:03:15.404Z,101615.81
2018-04-27T07:05:48.437Z,101611.78
2018-04-27T07:08:21.953Z,101608.31
2018-04-27T07:10:54.446Z,101609.05
2018-04-27T07:13:27.257Z,101605.07
2018-04-27T07:16:00.455Z,101606.93
2018-04-27T07:18:33.625Z,101614.84
2018-04-27T07:21:06.680Z,101614.06
2018-04-27T07:23:39.428Z,101618.70
2018-04-27T07:26:13.049Z,101621.25
2018-04-27T07:28:45.990Z,101622.68
2018-04-27T07:31:19.287Z,101623.13
2018-04-27T07:33:52.500Z,101626.49
2018-04-27T07:36:26.472Z,101624.82
2018-04-27T07:38:59.544Z,101619.51
2018-04-27T07:41:33.072Z,101616.87
2018-04-27T07:44:06.774Z,101614.69
2018-04-27T07:46:39.526Z,101616.20
2018-04-27T07:49:12.485Z,101614.36
2018-04-27T07:51:45.550Z,101614.44
2018-04-27T07:54:17.957Z,101617.55
2018-04-27T07:56:51.330Z,101615.08
2018-04-27T07:59:23.941Z,101618.07
2018-04-27T08:01:56.492Z,101620.71
2018-04-27T08:04:29.456Z,101619.37
2018-04-27T08:07:02.625Z,101618.58
2018-04-27T08:09:35.450Z,101617.14
2018-04-27T08:12:08.627Z,101616.72
2018-04-27T08:17:22.422Z,101612.86
2018-04-27T08:19:55.563Z,101612.56
2018-04-27T08:22:28.039Z,101613.75
2018-04-27T08:25:00.940Z,101615.14
2018-04-27T08:27:33.547Z,101617.20
2018-04-27T08:30:07.062Z,101619.45
2018-04-27T08:32:40.013Z,101620.56
2018-04-27T08:35:12.931Z,101616.13
2018-04-27T08:37:45.854Z,101609.59
2018-04-27T08:40:19.017Z,101606.64
2018-04-27T08:42:52.392Z,101605.88
2018-04-27T08:45:25.619Z,101609.54
2018-04-27T08:47:58.480Z,101609.72
2018-04-27T08:50:31.708Z,101610.34
2018-04-27T08:53:04.412Z,101609.73
2018-04-27T08:55:36.968Z,101608.53
2018-04-27T08:58:10.291Z,101606.47
2018-04-27T09:00:43.266Z,101603.59
2018-04-27T09:03:16.258Z,101608.92
2018-04-27T09:05:49.759Z,101603.27
2018-04-27T09:08:22.752Z,101603.48
2018-04-27T09:10:56.548Z,101600.70
2018-04-27T09:13:30.619Z,101597.55
2018-04-27T09:16:03.374Z,101603.56
2018-04-27T09:18:36.404Z,101600.58
2018-04-27T09:21:09.719Z,101598.10
2018-04-27T09:23:42.367Z,101594.30
2018-04-27T09:26:15.709Z,101596.02
2018-04-27T09:28:48.137Z,101600.16
2018-04-27T09:31:21.287Z,101599.90
2018-04-27T09:33:54.657Z,101593.58
2018-04-27T09:36:28.386Z,101600.97
2018-04-27T09:39:01.026Z,101608.98
2018-04-27T09:41:34.060Z,101600.41
2018-04-27T09:44:06.602Z,101607.02
2018-04-27T09:46:40.470Z,101614.14
2018-04-27T09:49:13.532Z,101614.23
2018-04-27T09:51:47.298Z,101614.98
2018-04-27T09:54:20.229Z,101613.11
2018-04-27T09:56:53.443Z,101611.34
2018-04-27T09:59:26.396Z,101606.74
2018-04-27T10:01:59.228Z,101609.95
2018-04-27T10:04:32.414Z,101609.27
2018-04-27T10:07:05.719Z,101603.95
2018-04-27T10:09:38.975Z,101615.09
2018-04-27T10:12:12.457Z,101610.52
2018-04-27T10:14:45.468Z,101610.88
2018-04-27T10:17:18.673Z,101613.57
2018-04-27T10:19:52.226Z,101614.30
2018-04-27T10:22:25.511Z,101611.82
2018-04-27T10:24:58.512Z,101614.95
2018-04-27T10:27:32.522Z,101606.67
2018-04-27T10:30:05.216Z,101613.82
2018-04-27T10:32:38.293Z,101609.08
2018-04-27T10:35:11.382Z,101609.75
2018-04-27T10:37:44.487Z,101613.72
2018-04-27T10:40:17.473Z,101605.85
2018-04-27T10:42:50.844Z,101609.81
2018-04-27T10:45:23.487Z,101614.63
2018-04-27T10:47:56.588Z,101621.89
2018-04-27T10:50:29.858Z,101620.88
2018-04-27T10:53:03.938Z,101616.32
2018-04-27T10:55:37.542Z,101620.65
2018-04-27T10:58:10.419Z,101624.33
2018-04-27T11:00:43.433Z,101628.66
2018-04-27T11:03:16.777Z,101635.27
2018-04-27T11:05:49.707Z,101640.87
2018-04-27T11:08:23.520Z,101638.62
2018-04-27T11:10:57.006Z,101640.23
2018-04-27T11:13:30.724Z,101639.89
2018-04-27T11:16:03.927Z,101640.06
2018-04-27T11:18:37.718Z,101636.84
2018-04-27T11:21:11.920Z,101639.17
2018-04-27T11:23:45.021Z,101640.66
2018-04-27T11:26:18.454Z,101638.48
2018-04-27T11:28:51.391Z,101636.27
2018-04-27T11:31:24.082Z,101641.36
2018-04-27T11:33:57.515Z,101632.09
2018-04-27T11:36:30.676Z,101647.87
2018-04-27T11:39:03.649Z,101641.78
2018-04-27T11:41:36.941Z,101640.63
2018-04-27T11:44:09.948Z,101646.59
2018-04-27T11:46:43.421Z,101645.78
2018-04-27T11:49:16.627Z,101641.78
2018-04-27T11:51:48.917Z,101649.36
2018-04-27T11:54:22.387Z,101655.07
2018-04-27T11:56:55.610Z,101659.97
2018-04-27T11:59:29.477Z,101660.08
2018-04-27T12:02:03.017Z,101667.85
2018-04-27T12:04:35.511Z,101660.98
2018-04-27T12:07:08.422Z,101664.20
2018-04-27T12:09:41.413Z,101661.25
2018-04-27T12:12:14.566Z,101663.50
2018-04-27T12:14:47.399Z,101658.84
2018-04-27T12:17:20.215Z,101657.02
2018-04-27T12:19:52.697Z,101657.05
2018-04-27T12:22:26.060Z,101660.32
2018-04-27T12:24:59.310Z,101664.28
2018-04-27T12:27:31.664Z,101666.26
2018-04-27T12:30:04.468Z,101668.28
2018-04-27T12:32:37.519Z,101672.86
2018-04-27T12:35:10.626Z,101672.79
2018-04-27T12:37:43.998Z,101668.83
2018-04-27T12:40:16.599Z,101666.14
2018-04-27T12:42:49.584Z,101666.06
2018-04-27T12:45:22.393Z,101668.08
2018-04-27T12:47:55.296Z,101667.58
2018-04-27T12:50:28.329Z,101669.05
2018-04-27T12:53:01.505Z,101678.64
2018-04-27T12:55:34.748Z,101678.64
2018-04-27T12:58:06.326Z,101678.68
2018-04-27T13:00:39.373Z,101677.94
2018-04-27T13:03:12.424Z,101678.56
2018-04-27T13:05:46.061Z,101678.91
2018-04-27T13:08:18.768Z,101684.37
2018-04-27T13:10:51.639Z,101681.70
2018-04-27T13:13:24.440Z,101681.20
2018-04-27T13:15:57.045Z,101682.16
2018-04-27T13:18:30.456Z,101691.13
2018-04-27T13:21:03.384Z,101687.17
2018-04-27T13:23:36.630Z,101694.66
2018-04-27T13:26:09.765Z,101700.17
2018-04-27T13:28:42.964Z,101699.91
2018-04-27T13:31:15.938Z,101710.16
2018-04-27T13:33:48.572Z,101713.22
2018-04-27T13:36:21.664Z,101715.48
2018-04-27T13:38:54.151Z,101718.09
2018-04-27T13:41:27.305Z,101724.14
2018-04-27T13:44:00.435Z,101730.84
2018-04-27T13:46:33.203Z,101730.42
2018-04-27T13:49:06.055Z,101729.10
2018-04-27T13:51:39.464Z,101736.91
2018-04-27T13:54:12.421Z,101735.36
2018-04-27T13:56:45.070Z,101738.47
2018-04-27T13:59:18.097Z,101746.66
2018-04-27T14:01:51.445Z,101750.36
2018-04-27T14:04:24.454Z,101751.11
2018-04-27T14:06:57.781Z,101753.31
2018-04-27T14:09:31.301Z,101762.37
2018-04-27T14:12:04.017Z,101761.59
2018-04-27T14:14:36.693Z,101762.49
2018-04-27T14:17:09.521Z,101773.09
2018-04-27T14:19:42.704Z,101771.30
2018-04-27T14:22:16.515Z,101767.56
2018-04-27T14:24:50.206Z,101773.38
2018-04-27T14:27:22.692Z,101778.81
2018-04-27T14:29:55.023Z,101776.67
2018-04-27T14:32:28.521Z,101782.23
2018-04-27T14:35:02.348Z,101777.30
2018-04-27T14:37:35.405Z,101785.62
2018-04-27T14:40:08.824Z,101794.82
2018-04-27T14:42:42.632Z,101792.65
2018-04-27T14:45:15.515Z,101797.14
2018-04-27T14:47:48.463Z,101796.48
2018-04-27T14:50:21.410Z,101797.41
2018-04-27T14:52:54.422Z,101796.91
2018-04-27T14:55:28.469Z,101801.69
2018-04-27T14:58:01.788Z,101796.87
2018-04-27T15:00:34.741Z,101805.25
2018-04-27T15:03:08.220Z,101800.94
2018-04-27T15:05:41.450Z,101809.64
2018-04-27T15:08:14.586Z,101809.49
2018-04-27T15:10:47.569Z,101805.57
2018-04-27T15:13:21.550Z,101810.52
2018-04-27T15:15:54.438Z,101805.12
2018-04-27T15:18:27.541Z,101806.22
2018-04-27T15:21:00.462Z,101803.15
2018-04-27T15:23:33.915Z,101807.85
2018-04-27T15:26:07.405Z,101808.70
2018-04-27T15:28:39.946Z,101806.11
2018-04-27T15:31:13.689Z,101806.53
2018-04-27T15:33:48.656Z,101811.70
2018-04-27T15:36:21.947Z,101812.87
2018-04-27T15:38:54.741Z,101804.17
2018-04-27T15:41:28.553Z,101808.56
2018-04-27T15:44:00.470Z,101806.98
2018-04-27T15:46:33.525Z,101808.03
2018-04-27T15:49:06.892Z,101811.73
2018-04-27T15:51:39.526Z,101806.61
2018-04-27T15:54:12.632Z,101808.95
2018-04-27T15:56:45.167Z,101808.95
2018-04-27T15:59:18.053Z,101813.50
2018-04-27T16:01:50.436Z,101810.13
2018-04-27T16:04:24.241Z,101806.24
2018-04-27T16:06:57.107Z,101801.70
2018-04-27T16:09:30.483Z,101802.71
2018-04-27T16:12:03.397Z,101804.73
2018-04-27T16:14:35.948Z,101805.00
2018-04-27T16:17:09.304Z,101805.36
2018-04-27T16:19:42.161Z,101810.83
2018-04-27T16:22:15.410Z,101807.69
2018-04-27T16:24:48.479Z,101808.38
2018-04-27T16:27:21.331Z,101818.45
2018-04-27T16:29:54.029Z,101821.87
2018-04-27T16:32:27.314Z,101818.76
2018-04-27T16:35:00.704Z,101824.62
2018-04-27T16:37:34.085Z,101822.56
2018-04-27T16:40:08.520Z,101821.84
2018-04-27T16:42:42.667Z,101817.17
2018-04-27T16:45:16.919Z,101822.73
2018-04-27T16:47:48.696Z,101822.95
2018-04-27T16:50:21.875Z,101826.37
2018-04-27T16:52:53.532Z,101821.31
2018-04-27T16:55:25.012Z,101818.08
2018-04-27T16:57:56.937Z,101821.77
2018-04-27T17:00:28.491Z,101818.45
2018-04-27T17:03:00.179Z,101818.78
2018-04-27T17:05:31.612Z,101820.76
2018-04-27T17:08:03.562Z,101817.09
2018-04-27T17:10:35.410Z,101827.05
2018-04-27T17:13:07.321Z,101828.61
2018-04-27T17:15:38.950Z,101839.53
2018-04-27T17:18:10.535Z,101839.11
2018-04-27T17:20:42.431Z,101832.84
2018-04-27T17:23:14.418Z,101843.93
2018-04-27T17:25:45.965Z,101838.98
2018-04-27T17:28:20.059Z,101831.21
2018-04-27T17:30:53.430Z,101833.81
2018-04-27T17:33:25.328Z,101834.59
2018-04-27T17:35:56.955Z,101833.69
2018-04-27T17:38:28.585Z,101832.09
2018-04-27T17:41:02.547Z,101829.27
2018-04-27T17:43:34.254Z,101827.46
2018-04-27T17:46:05.964Z,101829.00
2018-04-27T17:48:37.326Z,101838.72
2018-04-27T17:51:08.946Z,101836.28
2018-04-27T17:53:41.060Z,101833.78
2018-04-27T17:56:12.987Z,101840.95
2018-04-27T17:58:45.063Z,101842.30
2018-04-27T18:01:17.032Z,101840.94
2018-04-27T18:03:48.933Z,101839.45
2018-04-27T18:06:21.056Z,101844.16
2018-04-27T18:08:52.563Z,101850.98
2018-04-27T18:11:23.058Z,101848.27
2018-04-27T18:13:54.981Z,101845.69
2018-04-27T18:16:26.553Z,101846.59
2018-04-27T18:18:58.335Z,101853.64
2018-04-27T18:21:29.967Z,101853.73
2018-04-27T18:24:01.677Z,101847.80
2018-04-27T18:26:33.301Z,101850.08
2018-04-27T18:29:04.951Z,101852.64
2018-04-27T18:31:36.498Z,101844.22
2018-04-27T18:34:10.549Z,101850.13
2018-04-27T18:36:44.442Z,101850.38
2018-04-27T18:39:18.219Z,101847.86
2018-04-27T18:41:51.340Z,101850.30
2018-04-27T18:44:25.352Z,101847.59
2018-04-27T18:46:58.549Z,101849.05
2018-04-27T18:49:32.558Z,101842.70
2018-04-27T18:52:05.616Z,101842.66
2018-04-27T18:54:38.946Z,101842.30
2018-04-27T18:57:11.891Z,101846.28
2018-04-27T18:59:51.869Z,101843.45
2018-04-27T19:02:24.496Z,101841.66
2018-04-27T19:04:57.431Z,101841.47
2018-04-27T19:07:30.452Z,101842.16
2018-04-27T19:10:03.110Z,101838.47
2018-04-27T19:12:35.943Z,101839.63
2018-04-27T19:15:08.987Z,101839.02
2018-04-27T19:17:42.180Z,101834.34
2018-04-27T19:20:15.080Z,101836.73
2018-04-27T19:22:48.139Z,101831.75
2018-04-27T19:25:21.433Z,101838.50
2018-04-27T19:27:54.462Z,101829.38
2018-04-27T19:30:27.701Z,101824.44
2018-04-27T19:33:01.355Z,101823.13
2018-04-27T19:35:34.557Z,101815.81
2018-04-27T19:38:07.346Z,101808.48
2018-04-27T19:40:41.247Z,101808.22
2018-04-27T19:43:14.090Z,101802.84
2018-04-27T19:45:47.113Z,101793.25
2018-04-27T19:48:20.514Z,101792.77
2018-04-27T19:50:53.694Z,101796.02
2018-04-27T19:53:27.032Z,101790.44
2018-04-27T19:56:00.551Z,101790.45
2018-04-27T19:58:35.439Z,101782.72
2018-04-27T20:01:08.674Z,101781.94
2018-04-27T20:03:42.170Z,101782.43
2018-04-27T20:06:15.433Z,101784.09
2018-04-27T20:08:47.981Z,101778.52
2018-04-27T20:11:21.094Z,101778.34
2018-04-27T20:13:54.157Z,101771.19
2018-04-27T20:17:09.447Z,101768.73
2018-04-27T20:19:46.381Z,101764.87
2018-04-27T20:22:22.399Z,101766.55
2018-04-27T20:24:57.398Z,101770.43
2018-04-27T20:30:35.573Z,101769.42
2018-04-27T20:33:10.296Z,101773.35
2018-04-27T20:35:43.497Z,101772.25
2018-04-27T20:38:22.920Z,101765.73
2018-04-27T20:40:55.663Z,101768.48
2018-04-27T20:43:29.246Z,101768.77
2018-04-27T20:46:02.638Z,101764.69
2018-04-27T20:48:35.616Z,101766.49
2018-04-27T20:51:10.498Z,101769.07
2018-04-27T20:54:00.848Z,101769.37
2018-04-27T20:59:38.569Z,101767.91
2018-04-27T21:02:11.372Z,101768.97
2018-04-27T21:04:44.247Z,101760.61
2018-04-27T21:07:17.941Z,101764.20
2018-04-27T21:09:51.039Z,101764.14
2018-04-27T21:12:23.373Z,101757.89
2018-04-27T21:14:57.514Z,101751.83
2018-04-27T21:17:29.915Z,101758.56
2018-04-27T21:20:02.374Z,101751.81
2018-04-27T21:24:08.225Z,101746.28
2018-04-27T21:26:40.508Z,101748.20
2018-04-27T21:29:12.454Z,101744.20
2018-04-27T21:31:45.086Z,101747.20
2018-04-27T21:34:17.040Z,101743.27
2018-04-27T21:36:56.221Z,101742.15
2018-04-27T21:39:36.449Z,101747.97
2018-04-27T21:45:14.534Z,101738.85
2018-04-27T21:47:50.218Z,101739.22
2018-04-27T21:50:24.754Z,101745.03
2018-04-27T21:52:57.251Z,101744.83
2018-04-27T21:55:28.957Z,101739.07
2018-04-27T21:58:06.094Z,101737.85
2018-04-27T22:00:39.398Z,101736.08
2018-04-27T22:03:49.335Z,101734.69
2018-04-27T22:06:23.099Z,101727.65
2018-04-27T22:09:10.448Z,101723.00
2018-04-27T22:11:46.961Z,101727.41
2018-04-27T22:14:36.929Z,101722.33
2018-04-27T22:17:18.658Z,101720.11
2018-04-27T22:19:50.247Z,101724.11
2018-04-27T22:22:23.394Z,101713.14
2018-04-27T22:24:55.581Z,101719.22
2018-04-27T22:27:31.316Z,101723.19
2018-04-27T22:30:05.254Z,101722.78
2018-04-27T22:32:39.522Z,101715.46
2018-04-27T22:35:16.502Z,101720.22
2018-04-27T22:37:49.572Z,101708.70
2018-04-27T22:43:41.743Z,101709.41
2018-04-27T22:46:14.442Z,101703.27
2018-04-27T22:48:50.249Z,101706.11
2018-04-27T22:51:27.470Z,101699.98
2018-04-27T22:54:02.214Z,101696.53
2018-04-27T22:56:48.145Z,101704.32
2018-04-27T23:02:06.884Z,101703.28
2018-04-27T23:04:38.780Z,101693.60
2018-04-27T23:07:10.293Z,101688.81
2018-04-27T23:09:41.963Z,101707.45
2018-04-27T23:12:14.257Z,101703.26
2018-04-27T23:14:49.014Z,101686.98
2018-04-27T23:17:21.476Z,101691.22
2018-04-27T23:19:56.809Z,101699.08
2018-04-27T23:22:42.073Z,101695.56
2018-04-27T23:25:31.327Z,101691.91
2018-04-27T23:28:02.973Z,101698.66
2018-04-27T23:30:37.329Z,101691.42
2018-04-27T23:33:08.870Z,101681.06
2018-04-27T23:38:47.591Z,101691.56
2018-04-27T23:41:19.015Z,101689.02
2018-04-27T23:43:50.784Z,101689.41
2018-04-27T23:46:26.242Z,101687.03
2018-04-27T23:48:57.860Z,101687.48
2018-04-27T23:51:29.564Z,101683.08
2018-04-27T23:54:01.958Z,101690.13
2018-04-27T23:56:36.664Z,101688.75
2018-04-27T23:59:08.493Z,101691.43
